createdAt,value
2018-02-09T05:00:04.794Z,107.80
2018-02-09T05:02:31.173Z,120.45
2018-02-09T05:04:57.590Z,117.87
2018-02-09T05:07:23.978Z,111.75
2018-02-09T05:09:50.398Z,107.25
2018-02-09T05:12:17.519Z,104.25
2018-02-09T05:14:43.982Z,105.55
2018-02-09T05:17:11.118Z,97.53
2018-02-09T05:19:37.517Z,102.93
2018-02-09T05:22:03.910Z,98.53
2018-02-09T05:24:31.057Z,99.78
2018-02-09T05:26:58.201Z,98.15
2018-02-09T05:29:25.347Z,92.20
2018-02-09T05:31:52.478Z,99.70
2018-02-09T05:34:18.889Z,100.15
2018-02-09T05:36:45.261Z,93.37
2018-02-09T05:39:11.667Z,97.82
2018-02-09T05:41:38.074Z,101.85
2018-02-09T05:44:04.453Z,103.53
2018-02-09T05:46:30.848Z,103.22
2018-02-09T05:48:57.228Z,97.35
2018-02-09T05:51:23.653Z,101.37
2018-02-09T05:53:50.033Z,98.05
2018-02-09T05:56:16.426Z,98.65
2018-02-09T05:58:42.823Z,102.28
2018-02-09T06:01:09.253Z,107.03
2018-02-09T06:03:35.658Z,100.62
2018-02-09T06:06:09.010Z,98.85
2018-02-09T06:08:35.450Z,93.37
2018-02-09T06:11:01.807Z,94.00
2018-02-09T06:13:28.942Z,99.05
2018-02-09T06:15:55.317Z,100.60
2018-02-09T06:18:21.732Z,92.12
2018-02-09T06:20:48.942Z,102.90
2018-02-09T06:23:15.302Z,95.57
2018-02-09T06:25:41.717Z,97.22
2018-02-09T06:28:08.088Z,99.75
2018-02-09T06:30:35.237Z,101.80
2018-02-09T06:33:02.353Z,89.93
2018-02-09T06:35:28.799Z,97.45
2018-02-09T06:37:55.182Z,94.67
2018-02-09T06:40:21.581Z,93.55
2018-02-09T06:42:48.696Z,101.30
2018-02-09T06:45:15.186Z,97.05
2018-02-09T06:47:48.419Z,99.32
2018-02-09T06:50:14.819Z,98.57
2018-02-09T06:52:41.190Z,98.70
2018-02-09T06:55:07.597Z,91.70
2018-02-09T06:57:34.038Z,96.28
2018-02-09T07:00:00.458Z,103.10
2018-02-09T07:02:26.821Z,99.47
2018-02-09T07:04:53.209Z,102.60
2018-02-09T07:07:20.314Z,104.10
2018-02-09T07:09:46.753Z,98.82
2018-02-09T07:12:13.145Z,98.03
2018-02-09T07:14:39.552Z,102.12
2018-02-09T07:17:05.957Z,95.18
2018-02-09T07:19:32.481Z,95.80
2018-02-09T07:21:58.861Z,99.13
2018-02-09T07:24:26.060Z,101.85
2018-02-09T07:26:52.470Z,100.65
2018-02-09T07:29:18.862Z,97.32
2018-02-09T07:31:45.293Z,101.18
2018-02-09T07:34:11.719Z,95.33
2018-02-09T07:36:38.125Z,99.32
2018-02-09T07:39:04.570Z,95.12
2018-02-09T07:41:31.006Z,115.85
2018-02-09T07:43:57.441Z,148.20
2018-02-09T07:46:23.966Z,97.10
2018-02-09T07:48:50.346Z,95.78
2018-02-09T07:51:16.757Z,98.03
2018-02-09T07:53:43.133Z,95.47
2018-02-09T07:56:10.278Z,102.57
2018-02-09T07:58:37.409Z,100.00
2018-02-09T08:01:03.803Z,90.97
2018-02-09T08:03:30.198Z,96.70
2018-02-09T08:05:57.329Z,105.35
2018-02-09T08:08:23.721Z,95.35
2018-02-09T08:10:50.090Z,95.57
2018-02-09T08:13:16.494Z,98.50
2018-02-09T08:15:42.903Z,98.13
2018-02-09T08:18:09.289Z,94.37
2018-02-09T08:20:35.689Z,92.12
2018-02-09T08:23:02.069Z,91.93
2018-02-09T08:25:28.466Z,91.47
2018-02-09T08:27:54.840Z,96.40
2018-02-09T08:30:21.274Z,89.65
2018-02-09T08:32:48.407Z,95.90
2018-02-09T08:35:14.836Z,90.97
2018-02-09T08:37:41.197Z,92.82
2018-02-09T08:40:08.329Z,91.30
2018-02-09T08:42:34.693Z,88.57
2018-02-09T08:45:01.857Z,92.60
2018-02-09T08:47:28.240Z,89.87
2018-02-09T08:49:54.669Z,88.65
2018-02-09T08:52:21.058Z,87.07
2018-02-09T08:54:47.461Z,96.37
2018-02-09T08:57:13.861Z,96.32
2018-02-09T08:59:40.250Z,86.10
2018-02-09T09:02:07.416Z,95.05
2018-02-09T09:04:33.841Z,88.10
2018-02-09T09:07:00.241Z,92.40
2018-02-09T09:09:26.714Z,86.82
2018-02-09T09:11:53.133Z,83.15
2018-02-09T09:14:20.293Z,83.32
2018-02-09T09:16:46.682Z,80.05
2018-02-09T09:19:13.097Z,82.37
2018-02-09T09:21:39.489Z,84.07
2018-02-09T09:24:06.650Z,81.85
2018-02-09T09:26:33.032Z,90.30
2018-02-09T09:28:59.457Z,85.95
2018-02-09T09:31:25.844Z,89.60
2018-02-09T09:33:53.042Z,87.75
2018-02-09T09:36:19.433Z,82.43
2018-02-09T09:38:46.601Z,85.12
2018-02-09T09:41:13.022Z,73.25
2018-02-09T09:43:39.410Z,67.47
2018-02-09T09:46:05.843Z,74.77
2018-02-09T09:48:32.234Z,53.90
2018-02-09T09:50:58.632Z,58.28
2018-02-09T09:53:25.015Z,57.78
2018-02-09T09:55:51.403Z,54.88
2018-02-09T09:58:18.542Z,47.95
2018-02-09T10:00:44.934Z,57.60
2018-02-09T10:03:11.390Z,57.33
2018-02-09T10:05:37.792Z,60.12
2018-02-09T10:08:04.203Z,58.55
2018-02-09T10:10:31.324Z,56.78
2018-02-09T10:12:57.730Z,62.25
2018-02-09T10:15:24.137Z,64.05
2018-02-09T10:17:57.705Z,56.60
2018-02-09T10:20:24.122Z,59.60
2018-02-09T10:22:50.508Z,46.50
2018-02-09T10:25:16.949Z,49.22
2018-02-09T10:27:43.349Z,48.28
2018-02-09T10:30:10.500Z,53.47
2018-02-09T10:32:37.621Z,42.15
2018-02-09T10:35:04.025Z,49.63
2018-02-09T10:37:30.424Z,51.37
2018-02-09T10:39:57.555Z,46.10
2018-02-09T10:42:23.965Z,48.17
2018-02-09T10:44:50.338Z,52.70
2018-02-09T10:47:17.494Z,50.75
2018-02-09T10:49:43.889Z,52.75
2018-02-09T10:52:10.277Z,49.13
2018-02-09T10:54:37.380Z,49.75
2018-02-09T10:57:03.769Z,51.88
2018-02-09T10:59:30.172Z,44.03
2018-02-09T11:01:57.290Z,55.75
2018-02-09T11:04:23.694Z,47.97
2018-02-09T11:06:50.069Z,40.67
2018-02-09T11:09:22.434Z,50.12
2018-02-09T11:11:48.862Z,46.55
2018-02-09T11:14:15.261Z,48.20
2018-02-09T11:16:41.628Z,50.75
2018-02-09T11:19:08.024Z,47.50
2018-02-09T11:21:34.417Z,46.88
2018-02-09T11:24:00.825Z,43.95
2018-02-09T11:26:27.206Z,51.15
2018-02-09T11:28:54.339Z,47.22
2018-02-09T11:31:21.545Z,45.88
2018-02-09T11:33:47.912Z,46.13
2018-02-09T11:36:14.316Z,46.92
2018-02-09T11:38:40.690Z,46.22
2018-02-09T11:41:07.093Z,47.80
2018-02-09T11:43:33.494Z,51.42
2018-02-09T11:45:59.885Z,45.83
2018-02-09T11:48:26.280Z,51.00
2018-02-09T11:50:52.651Z,47.40
2018-02-09T11:53:19.053Z,47.15
2018-02-09T11:55:45.420Z,49.50
2018-02-09T11:58:11.816Z,45.38
2018-02-09T12:00:38.249Z,48.25
2018-02-09T12:03:04.616Z,41.08
2018-02-09T12:05:31.040Z,49.83
2018-02-09T12:07:57.498Z,43.00
2018-02-09T12:10:23.899Z,49.85
2018-02-09T12:12:50.276Z,42.60
2018-02-09T12:15:17.450Z,43.70
2018-02-09T12:17:43.849Z,43.28
2018-02-09T12:20:10.966Z,46.97
2018-02-09T12:22:37.370Z,49.03
2018-02-09T12:25:03.833Z,46.80
2018-02-09T12:27:30.253Z,47.10
2018-02-09T12:29:56.616Z,43.05
2018-02-09T12:32:23.010Z,47.17
2018-02-09T12:34:56.212Z,45.17
2018-02-09T12:37:22.606Z,49.65
2018-02-09T12:39:48.985Z,47.88
2018-02-09T12:42:15.381Z,44.58
2018-02-09T12:44:42.538Z,46.40
2018-02-09T12:47:09.705Z,43.55
2018-02-09T12:49:36.117Z,50.80
2018-02-09T12:52:03.243Z,47.30
2018-02-09T12:54:29.648Z,45.42
2018-02-09T12:56:56.030Z,49.28
2018-02-09T12:59:22.429Z,50.60
2018-02-09T13:01:48.834Z,49.35
2018-02-09T13:04:15.234Z,49.15
2018-02-09T13:06:42.362Z,50.25
2018-02-09T13:09:08.761Z,49.55
2018-02-09T13:11:35.144Z,48.75
2018-02-09T13:14:01.587Z,53.75
2018-02-09T13:16:27.958Z,51.25
2018-02-09T13:18:54.403Z,57.17
2018-02-09T13:21:20.775Z,56.92
2018-02-09T13:23:59.558Z,51.92
2018-02-09T13:26:25.942Z,57.55
2018-02-09T13:28:59.321Z,54.20
2018-02-09T17:59:53.646Z,76.40
2018-02-09T18:02:20.033Z,71.97
2018-02-09T18:04:47.184Z,79.25
2018-02-09T18:07:15.781Z,77.68
2018-02-09T18:09:42.931Z,76.70
2018-02-09T18:12:10.061Z,72.40
2018-02-09T18:14:36.488Z,71.80
2018-02-09T18:17:02.974Z,76.97
2018-02-09T18:19:29.408Z,79.35
2018-02-09T18:21:55.858Z,72.07
2018-02-09T18:24:22.353Z,76.73
2018-02-09T18:26:49.517Z,76.78
2018-02-09T18:29:15.927Z,74.70
2018-02-09T18:31:43.073Z,71.75
2018-02-09T18:34:09.533Z,74.97
2018-02-09T18:36:36.644Z,78.72
2018-02-09T18:39:03.430Z,71.97
2018-02-09T18:41:29.823Z,77.35
2018-02-09T18:43:56.239Z,76.62
2018-02-09T18:46:22.644Z,82.68
2018-02-09T18:48:49.069Z,77.63
2018-02-09T18:51:17.641Z,81.50
2018-02-09T18:53:47.045Z,78.18
2018-02-09T18:56:16.184Z,77.37
2018-02-09T18:58:44.652Z,78.07
2018-02-09T19:01:12.692Z,85.20
2018-02-09T19:03:41.136Z,82.37
2018-02-09T19:06:09.549Z,76.43
2018-02-09T19:08:38.701Z,77.18
2018-02-09T19:11:07.944Z,78.75
2018-02-09T19:13:37.251Z,78.37
2018-02-09T19:16:06.352Z,80.95
2018-02-09T19:18:34.300Z,73.87
2018-02-09T19:21:02.462Z,75.85
2018-02-09T19:23:30.014Z,68.05
2018-02-09T19:25:58.526Z,72.80
2018-02-09T19:28:26.994Z,70.85
2018-02-09T19:30:55.356Z,70.22
2018-02-09T19:33:23.985Z,71.73
2018-02-09T19:35:53.090Z,68.05
2018-02-09T19:38:22.170Z,71.72
2018-02-09T19:40:50.665Z,72.10
2018-02-09T19:43:20.056Z,69.95
2018-02-09T19:45:48.809Z,72.20
2018-02-09T19:48:17.425Z,72.20
2018-02-09T19:50:45.666Z,71.45
2018-02-09T19:53:13.724Z,72.20
2018-02-09T19:55:42.647Z,79.10
2018-02-09T19:58:11.386Z,70.65
2018-02-09T20:00:40.732Z,70.15
2018-02-09T20:03:07.163Z,72.07
2018-02-09T20:05:33.553Z,75.25
2018-02-09T20:08:00.739Z,69.67
2018-02-09T20:10:27.154Z,71.13
2018-02-09T20:12:53.557Z,74.15
2018-02-09T20:15:19.977Z,73.57
2018-02-09T20:17:46.368Z,76.87
2018-02-09T20:20:12.778Z,72.77
2018-02-09T20:22:39.933Z,74.05
2018-02-09T20:25:07.118Z,75.93
2018-02-09T20:27:33.489Z,80.45
2018-02-09T20:29:59.886Z,72.00
2018-02-09T20:32:26.294Z,77.15
2018-02-09T20:34:52.673Z,75.50
2018-02-09T20:37:19.090Z,72.65
2018-02-09T20:39:45.490Z,71.62
2018-02-09T20:42:12.656Z,71.37
2018-02-09T20:44:39.149Z,67.65
2018-02-09T20:47:05.573Z,66.00
2018-02-09T20:49:31.985Z,74.28
2018-02-09T20:51:58.407Z,74.12
2018-02-09T20:54:25.243Z,70.18
2018-02-09T20:56:51.854Z,69.80
2018-02-09T20:59:19.090Z,69.68
2018-02-09T21:01:46.321Z,66.33
2018-02-09T21:04:12.807Z,71.00
2018-02-09T21:06:39.950Z,73.50
2018-02-09T21:09:07.173Z,69.20
2018-02-09T21:11:33.594Z,70.30
2018-02-09T21:14:00.062Z,73.28
2018-02-09T21:16:27.295Z,73.90
2018-02-09T21:18:53.725Z,76.57
2018-02-09T21:21:20.190Z,74.40
2018-02-09T21:23:47.306Z,74.78
2018-02-09T21:26:13.774Z,77.55
2018-02-09T21:28:40.914Z,78.40
2018-02-09T21:31:07.429Z,79.93
2018-02-09T21:33:33.811Z,77.97
2018-02-09T21:36:00.983Z,76.75
2018-02-09T21:38:27.451Z,83.87
2018-02-09T21:40:53.883Z,76.53
2018-02-09T21:43:20.327Z,77.83
2018-02-09T21:45:47.516Z,77.82
2018-02-09T21:48:14.697Z,83.07
2018-02-09T21:50:41.154Z,78.30
2018-02-09T21:53:07.561Z,75.75
2018-02-09T21:55:34.042Z,78.70
2018-02-09T21:58:00.442Z,79.62
2018-02-09T22:00:26.931Z,76.32
2018-02-09T22:02:54.052Z,79.00
2018-02-09T22:05:20.469Z,75.45
2018-02-09T22:07:46.858Z,76.45
2018-02-09T22:10:14.025Z,77.82
2018-02-09T22:12:40.425Z,75.45
2018-02-09T22:15:06.899Z,81.40
2018-02-09T22:17:33.308Z,78.20
2018-02-09T22:20:00.464Z,76.35
2018-02-09T22:22:27.617Z,84.78
2018-02-09T22:24:54.754Z,86.80
2018-02-09T22:27:21.147Z,81.70
2018-02-09T22:29:47.565Z,76.83
2018-02-09T22:32:13.952Z,78.85
2018-02-09T22:34:40.368Z,78.35
2018-02-09T22:37:06.771Z,78.75
2018-02-09T22:39:33.190Z,82.55
2018-02-09T22:41:59.634Z,81.43
2018-02-09T22:44:26.086Z,77.65
2018-02-09T22:46:52.473Z,78.70
2018-02-09T22:49:19.660Z,80.50
2018-02-09T22:51:46.063Z,85.97
2018-02-09T22:54:13.219Z,77.90
2018-02-09T22:56:40.363Z,80.70
2018-02-09T22:59:07.556Z,79.28
2018-02-09T23:01:34.001Z,85.30
2018-02-09T23:04:00.596Z,77.90
2018-02-09T23:06:27.822Z,83.80
2018-02-09T23:08:54.341Z,80.87
2018-02-09T23:11:20.769Z,75.65
2018-02-09T23:13:47.192Z,80.12
2018-02-09T23:16:13.590Z,87.28
2018-02-09T23:18:40.010Z,81.22
2018-02-09T23:21:07.134Z,80.85
2018-02-09T23:23:33.545Z,85.97
2018-02-09T23:25:59.929Z,78.68
2018-02-09T23:28:27.085Z,81.12
2018-02-09T23:30:54.217Z,83.18
2018-02-09T23:33:20.617Z,86.93
2018-02-09T23:35:47.094Z,87.32
2018-02-09T23:38:14.314Z,81.32
2018-02-09T23:40:40.765Z,84.87
2018-02-09T23:43:07.214Z,90.97
2018-02-09T23:45:33.672Z,84.70
2018-02-09T23:48:00.821Z,82.30
2018-02-09T23:50:27.969Z,80.90
2018-02-09T23:52:55.091Z,84.32
2018-02-09T23:55:21.500Z,86.68
2018-02-09T23:57:47.878Z,87.00
